AirNav   Everest Fuels
 
 1615 users online  

15J Cook County Airport
Adel, Georgia, USA

GOING TO ADEL?


FAA INFORMATION EFFECTIVE 25 APRIL 2019

Location

FAA Identifier: 15J
Lat/Long: 31-08-13.6372N / 083-27-13.7587W
31-08.227287N / 083-27.229312W
31.1371214 / -83.4538219
(estimated)
Elevation: 236 ft. / 72 m (estimated)
Variation: 04W (2000)
From city: 1 mile W of ADEL, GA
Time zone: UTC -4 (UTC -5 during Standard Time)
Zip code: 31620

Airport Operations

Airport use: Open to the public
Activation date: 01/1943
Control tower: no
ARTCC: JACKSONVILLE CENTER
FSS: MACON FLIGHT SERVICE STATION
NOTAMs facility: MCN (NOTAM-D service available)
Attendance: MON - SAT 0800-1700
Wind indicator: lighted
Segmented circle: yes
Lights: ACTVT MIRL, PAPI'S, RY 05/23 - CTAF.
Beacon: white-green (lighted land airport)
Operates sunset to sunrise.

Airport Communications

CTAF/UNICOM: 122.8
VALDOSTA APPROACH: 126.6 EAST OF VAD R-360 - R-180 RADI 132.375 WEST OF VAD R-360 RADIAL
VALDOSTA DEPARTURE: 126.6 EAST OF VAD R-360 - R-180 RADI 132.375 WEST OF VAD R-360 RADIAL
IC: 126.6 EAST OF VAD R-360 - R-180 RADI
WX AWOS-3PT at TMA (18 nm N): 118.525 (229-386-8937)
WX AWOS-3PT at MGR (18 nm W): 118.925 (229-890-5320)
  • APCH/DEP SVC PRVDD BY JACKSONVILLE ARTCC ON FREQS 133.7/399.6 (VALDOSTA RCAG) WHEN VALDOSTA APCH CTL CLSD.

Nearby radio navigation aids

VOR radial/distance  VOR name  Freq  Var
IFMr175/(17.6)TIFT MYERS VOR112.5001W
OTKr339/23.2VALDOSTA VOR/DME114.8002W
GEFr025/39.0GREENVILLE VORTAC109.0001E

 
NDB name  Hdg/Dist  Freq  Var  ID
PATON066/22.024505WGTP --. - .--.
FITZGERALD201/29.736205WSUR ... ..- .-.
COFFEE COUNTY245/31.639006WOWC --- .-- -.-.
HOMERVILLE284/35.420906WHOE .... --- .
CAIDY072/39.233804WCYR -.-. -.-- .-.

Airport Services

Fuel available: 100LL JET-A1+
Parking: hangars and tiedowns
Airframe service: MAJOR
Powerplant service: MAJOR
Bottled oxygen: NONE
Bulk oxygen: NONE

Runway Information

Runway 5/23

Dimensions: 5001 x 100 ft. / 1524 x 30 m
Surface: asphalt, in good condition
Weight bearing capacity: 
Single wheel: 30.0
Double wheel: 30.0
Runway edge lights: medium intensity
RUNWAY 5  RUNWAY 23
Latitude: 31-07.843157N31-08.402143N
Longitude: 083-27.652318W083-26.947070W
Elevation: 232.5 ft.234.5 ft.
Traffic pattern: leftleft
Runway heading: 051 magnetic, 047 true231 magnetic, 227 true
Markings: nonprecision, in fair conditionnonprecision, in fair condition
Visual slope indicator: 2-light PAPI on left (3.00 degrees glide path)2-light PAPI on left (3.00 degrees glide path)
Touchdown point: yes, no lightsyes, no lights
Obstructions: none15 ft. road, 350 ft. from runway, 262 ft. right of centerline, 10:1 slope to clear

Runway 15/33

Dimensions: 3999 x 100 ft. / 1219 x 30 m
Surface: asphalt, in good condition
Weight bearing capacity: 
Single wheel: 30.0
Double wheel: 30.0
RUNWAY 15  RUNWAY 33
Latitude: 31-08.627833N31-08.088333N
Longitude: 083-27.362000W083-26.920667W
Elevation: 234.5 ft.234.4 ft.
Traffic pattern: leftleft
Runway heading: 149 magnetic, 145 true329 magnetic, 325 true
Displaced threshold: 600 ft.350 ft.
Markings: basic, in fair conditionbasic, in fair condition
Touchdown point: yes, no lightsyes, no lights
Obstructions: 15 ft. road, 395 ft. from runway, 13:1 slope to clear
RY 15 APCH RATIO 50:1 TO DSPLCD THLD.
10 ft. trees, 201 ft. from runway, 75 ft. left of centerline
RY 33 APCH RATIO 25:1 TO DSPLCD THLD.

Airport Ownership and Management from official FAA records

Ownership: Publicly-owned
Owner: COOK COUNTY
1200 SO. HUTCHISON
ADEL, GA 31620
Phone 229-896-2266
Manager: MIKE DINNERMAN
160 AIRPORT RD.
ADEL, GA 31620
Phone (229) 896-3858
ALT PHONE: 229-881-7710

Airport Operational Statistics

Aircraft based on the field: 24
Single engine airplanes: 22
Multi engine airplanes: 1
Ultralights: 1
    
Aircraft operations: avg 28/day *
50% transient general aviation
50% local general aviation
* for 12-month period ending 31 December 2016

Instrument Procedures

NOTE: All procedures below are presented as PDF files. If you need a reader for these files, you should download the free Adobe Reader.

NOT FOR NAVIGATION. Please procure official charts for flight.
FAA instrument procedures published for use from 25 April 2019 at 0901Z to 23 May 2019 at 0900Z.

 
IAPs - Instrument Approach Procedures
RNAV (GPS) RWY 05 **CHANGED**   download (191KB)
RNAV (GPS) RWY 23 **CHANGED**   download (211KB)
NOTE: Special Take-Off Minimums/Departure Procedures apply   download (189KB)

Other nearby airports with instrument procedures:

4J2 - Berrien County Airport (13 nm E)
KVAD - Moody Air Force Base (17 nm SE)
KTMA - Henry Tift Myers Airport (18 nm N)
KMGR - Moultrie Municipal Airport (18 nm W)
4J5 - Quitman Brooks County Airport (21 nm S)
 
Loc | Ops | Rwys | IFR | FBO | Links
Com | Nav | Svcs | Stats | Notes
Area around 15J (Cook County Airport)
 
Road maps at: MapQuest Bing Google
 
Aerial photo
WARNING: Photo may not be current or correct
Aerial photo of 15J (Cook County Airport)
Do you have a better or more recent aerial photo of Cook County Airport that you would like to share? If so, please send us your photo.

 
Sectional chart

 
Airport distance calculator
Flying to Cook County Airport? Find the distance to fly.

From to 15J

Sunrise and sunset
Times for 21-May-2019
 Local
(UTC-4)
 Zulu
(UTC)
Morning civil twilight06:0910:09
Sunrise06:3610:36
Sunset20:2500:25
Evening civil twilight20:5200:52

Current date and time
Zulu (UTC)  21-May-2019 18:12:11
Local (UTC-4)  21-May-2019 14:12:11
 
METAR
KVAD 
17nm SE 
211656Z AUTO 19003KT 10SM FEW130 SCT160 33/16 A2996 RMK AO2 SLP145 T03320161 $
KTMA 
18nm N 
211755Z AUTO 24005KT 10SM BKN070 32/14 A2996 RMK AO2 T03210139
KMGR 
18nm W 
211755Z AUTO 19004KT 10SM CLR 32/16 A2996 RMK AO2
KVLD 
24nm SE 
211753Z 16005KT 10SM SCT065 33/17 A2995 RMK AO2 SLP148 T03330172 10339 20222 58009
KTVI 
26nm SW 
211755Z AUTO 22006KT 10SM SCT060 32/17 A2997 RMK AO2
TAF
KVAD 
17nm SE 
211600Z 2116/2222 18006KT 9999 FEW160 QNH2991INS BECMG 2122/2123 20003KT 9999 BKN035 QNH2991INS BECMG 2205/2206 20006KT 9999 SCT065 QNH3001INS TX35/2120Z TN21/2210Z
NOTAMs
Click for the latest NOTAMs
NOTAMs are issued by the DoD/FAA and will open in a separate window not controlled by AirNav.

 

 
 

FBO, Fuel Providers, and Aircraft Ground Support

  
 Business Name 
 
 Contact 
 
 Services / Description 
 
Fuel Prices
 
Comments
  
Cook County Airport 229-896-3858 Airport management, Aviation fuel

More info about Cook County Airport
independent
100LL Jet A
SS $4.00 $4.00 
 Updated 13-May-2019
 
   7 read write
SS=Self service
Update Fuel Prices
 

Would you like to see your business listed on this page?

 If your business provides an interesting product or service to pilots, flight crews, aircraft, or users of the Cook County Airport, you should consider listing it here.  To start the listing process, click on the button below
 
Add a business
 

Other Pages about Cook County Airport

Update a link
 
Copyright © AirNav, LLC. All rights reserved. Privacy Policy  Contact